sensor_id;sensor_type;location;lat;lon;timestamp;temperature;humidity
22364;DHT22;11349;53.412;-1.328;2023-06-24T00:02:10;21.20;99.90
22364;DHT22;11349;53.412;-1.328;2023-06-24T00:04:36;21.10;99.90
22364;DHT22;11349;53.412;-1.328;2023-06-24T00:07:02;21.10;99.90
22364;DHT22;11349;53.412;-1.328;2023-06-24T00:09:29;20.90;1.00
22364;DHT22;11349;53.412;-1.328;2023-06-24T00:11:58;20.70;99.90
22364;DHT22;11349;53.412;-1.328;2023-06-24T00:14:27;20.60;99.90
22364;DHT22;11349;53.412;-1.328;2023-06-24T00:16:54;20.60;62.60
22364;DHT22;11349;53.412;-1.328;2023-06-24T00:19:21;20.80;1.00
22364;DHT22;11349;53.412;-1.328;2023-06-24T00:21:48;21.00;1.00
22364;DHT22;11349;53.412;-1.328;2023-06-24T00:24:17;21.00;99.90
22364;DHT22;11349;53.412;-1.328;2023-06-24T00:26:47;21.10;1.00
22364;DHT22;11349;53.412;-1.328;2023-06-24T00:29:13;21.30;99.90
22364;DHT22;11349;53.412;-1.328;2023-06-24T00:31:39;21.30;1.00
22364;DHT22;11349;53.412;-1.328;2023-06-24T00:34:05;21.30;99.90
22364;DHT22;11349;53.412;-1.328;2023-06-24T00:36:30;21.00;86.30
22364;DHT22;11349;53.412;-1.328;2023-06-24T00:39:01;21.10;1.00
22364;DHT22;11349;53.412;-1.328;2023-06-24T00:41:29;21.20;1.00
22364;DHT22;11349;53.412;-1.328;2023-06-24T00:43:56;21.20;1.00
22364;DHT22;11349;53.412;-1.328;2023-06-24T00:46:26;21.30;1.00
22364;DHT22;11349;53.412;-1.328;2023-06-24T00:48:53;21.40;1.00
22364;DHT22;11349;53.412;-1.328;2023-06-24T00:51:19;21.40;1.00
22364;DHT22;11349;53.412;-1.328;2023-06-24T00:53:47;21.40;1.00
22364;DHT22;11349;53.412;-1.328;2023-06-24T00:56:14;21.50;1.00
22364;DHT22;11349;53.412;-1.328;2023-06-24T00:58:44;21.40;20.60
22364;DHT22;11349;53.412;-1.328;2023-06-24T01:01:10;21.40;1.00
22364;DHT22;11349;53.412;-1.328;2023-06-24T01:03:37;21.30;1.00
22364;DHT22;11349;53.412;-1.328;2023-06-24T01:06:03;21.30;1.00
22364;DHT22;11349;53.412;-1.328;2023-06-24T01:08:29;21.60;99.90
22364;DHT22;11349;53.412;-1.328;2023-06-24T01:10:55;21.60;1.00
22364;DHT22;11349;53.412;-1.328;2023-06-24T01:13:21;21.40;1.00
22364;DHT22;11349;53.412;-1.328;2023-06-24T01:15:47;21.40;99.90
22364;DHT22;11349;53.412;-1.328;2023-06-24T01:26:42;21.20;99.90
22364;DHT22;11349;53.412;-1.328;2023-06-24T01:29:30;21.00;99.90
22364;DHT22;11349;53.412;-1.328;2023-06-24T01:34:58;21.20;99.90
22364;DHT22;11349;53.412;-1.328;2023-06-24T01:37:32;21.30;99.90
22364;DHT22;11349;53.412;-1.328;2023-06-24T01:42:41;21.40;99.90
22364;DHT22;11349;53.412;-1.328;2023-06-24T01:45:10;21.50;99.90
22364;DHT22;11349;53.412;-1.328;2023-06-24T01:47:39;21.40;99.90
22364;DHT22;11349;53.412;-1.328;2023-06-24T01:50:07;21.30;99.90
22364;DHT22;11349;53.412;-1.328;2023-06-24T01:52:35;21.40;99.90
22364;DHT22;11349;53.412;-1.328;2023-06-24T01:55:01;21.50;99.90
22364;DHT22;11349;53.412;-1.328;2023-06-24T01:57:30;21.50;99.90
22364;DHT22;11349;53.412;-1.328;2023-06-24T01:59:59;21.60;99.90
22364;DHT22;11349;53.412;-1.328;2023-06-24T02:02:26;21.30;99.90
22364;DHT22;11349;53.412;-1.328;2023-06-24T02:04:54;21.40;99.90
22364;DHT22;11349;53.412;-1.328;2023-06-24T02:07:22;21.20;1.00
22364;DHT22;11349;53.412;-1.328;2023-06-24T02:09:49;21.00;68.50
22364;DHT22;11349;53.412;-1.328;2023-06-24T02:12:16;20.70;84.20
22364;DHT22;11349;53.412;-1.328;2023-06-24T02:14:43;21.00;36.10
22364;DHT22;11349;53.412;-1.328;2023-06-24T02:17:11;20.70;1.00
22364;DHT22;11349;53.412;-1.328;2023-06-24T02:19:38;20.70;99.90
22364;DHT22;11349;53.412;-1.328;2023-06-24T02:22:05;21.00;99.90
22364;DHT22;11349;53.412;-1.328;2023-06-24T02:24:36;20.80;1.00
22364;DHT22;11349;53.412;-1.328;2023-06-24T02:27:03;20.60;1.00
22364;DHT22;11349;53.412;-1.328;2023-06-24T02:29:30;21.00;1.00
22364;DHT22;11349;53.412;-1.328;2023-06-24T02:31:57;20.80;1.00
22364;DHT22;11349;53.412;-1.328;2023-06-24T02:34:23;21.00;99.90
22364;DHT22;11349;53.412;-1.328;2023-06-24T02:36:49;20.80;1.00
22364;DHT22;11349;53.412;-1.328;2023-06-24T02:39:15;20.90;99.90
22364;DHT22;11349;53.412;-1.328;2023-06-24T02:41:41;20.90;99.90
22364;DHT22;11349;53.412;-1.328;2023-06-24T02:44:07;20.80;99.90
22364;DHT22;11349;53.412;-1.328;2023-06-24T02:46:34;20.80;1.00
22364;DHT22;11349;53.412;-1.328;2023-06-24T02:49:02;20.90;99.90
22364;DHT22;11349;53.412;-1.328;2023-06-24T02:51:29;20.90;1.00
22364;DHT22;11349;53.412;-1.328;2023-06-24T02:53:55;21.00;99.90
22364;DHT22;11349;53.412;-1.328;2023-06-24T02:56:25;21.10;99.90
22364;DHT22;11349;53.412;-1.328;2023-06-24T02:58:52;21.20;99.90
22364;DHT22;11349;53.412;-1.328;2023-06-24T03:01:19;21.30;99.90
22364;DHT22;11349;53.412;-1.328;2023-06-24T03:03:54;21.20;99.90
22364;DHT22;11349;53.412;-1.328;2023-06-24T03:06:21;21.10;92.60
22364;DHT22;11349;53.412;-1.328;2023-06-24T03:08:50;21.00;99.90
22364;DHT22;11349;53.412;-1.328;2023-06-24T03:11:16;20.90;99.90
22364;DHT22;11349;53.412;-1.328;2023-06-24T03:13:42;20.90;96.50
22364;DHT22;11349;53.412;-1.328;2023-06-24T03:16:08;20.60;99.90
22364;DHT22;11349;53.412;-1.328;2023-06-24T03:18:40;20.40;1.00
22364;DHT22;11349;53.412;-1.328;2023-06-24T03:21:06;20.30;1.00
22364;DHT22;11349;53.412;-1.328;2023-06-24T03:23:32;20.20;37.70
22364;DHT22;11349;53.412;-1.328;2023-06-24T03:25:57;19.90;99.90
22364;DHT22;11349;53.412;-1.328;2023-06-24T03:28:23;19.70;99.90
22364;DHT22;11349;53.412;-1.328;2023-06-24T03:30:49;19.50;99.90
22364;DHT22;11349;53.412;-1.328;2023-06-24T03:33:15;19.80;21.30
22364;DHT22;11349;53.412;-1.328;2023-06-24T03:35:43;19.60;99.90
22364;DHT22;11349;53.412;-1.328;2023-06-24T03:38:08;19.60;99.90
22364;DHT22;11349;53.412;-1.328;2023-06-24T03:40:34;19.50;99.90
22364;DHT22;11349;53.412;-1.328;2023-06-24T03:43:00;19.40;99.90
22364;DHT22;11349;53.412;-1.328;2023-06-24T03:45:25;19.50;99.90
22364;DHT22;11349;53.412;-1.328;2023-06-24T03:47:51;19.50;99.90
22364;DHT22;11349;53.412;-1.328;2023-06-24T03:50:17;19.50;99.90
22364;DHT22;11349;53.412;-1.328;2023-06-24T03:52:43;19.60;1.00
22364;DHT22;11349;53.412;-1.328;2023-06-24T03:55:10;19.70;99.90
22364;DHT22;11349;53.412;-1.328;2023-06-24T03:57:36;19.50;99.90
22364;DHT22;11349;53.412;-1.328;2023-06-24T04:00:03;19.40;99.90
22364;DHT22;11349;53.412;-1.328;2023-06-24T04:02:41;19.30;99.90
22364;DHT22;11349;53.412;-1.328;2023-06-24T04:05:07;19.20;1.00
22364;DHT22;11349;53.412;-1.328;2023-06-24T04:07:33;19.10;1.00
22364;DHT22;11349;53.412;-1.328;2023-06-24T04:10:02;19.20;1.00
22364;DHT22;11349;53.412;-1.328;2023-06-24T04:12:29;19.30;1.00
22364;DHT22;11349;53.412;-1.328;2023-06-24T04:14:55;19.10;1.00
22364;DHT22;11349;53.412;-1.328;2023-06-24T04:17:21;19.20;1.00
22364;DHT22;11349;53.412;-1.328;2023-06-24T04:19:46;19.30;1.00
22364;DHT22;11349;53.412;-1.328;2023-06-24T04:22:12;19.50;99.90
22364;DHT22;11349;53.412;-1.328;2023-06-24T04:24:38;19.40;1.00
22364;DHT22;11349;53.412;-1.328;2023-06-24T04:27:05;19.30;1.00
22364;DHT22;11349;53.412;-1.328;2023-06-24T04:29:31;19.30;1.00
22364;DHT22;11349;53.412;-1.328;2023-06-24T04:31:57;19.40;1.00
22364;DHT22;11349;53.412;-1.328;2023-06-24T04:34:22;19.40;1.00
22364;DHT22;11349;53.412;-1.328;2023-06-24T04:36:48;19.20;1.00
22364;DHT22;11349;53.412;-1.328;2023-06-24T04:39:14;19.10;1.00
22364;DHT22;11349;53.412;-1.328;2023-06-24T04:41:40;19.10;1.00
22364;DHT22;11349;53.412;-1.328;2023-06-24T04:44:05;19.10;1.00
22364;DHT22;11349;53.412;-1.328;2023-06-24T04:46:31;19.10;1.00
22364;DHT22;11349;53.412;-1.328;2023-06-24T04:48:58;19.00;35.90
22364;DHT22;11349;53.412;-1.328;2023-06-24T04:51:24;18.90;26.40
22364;DHT22;11349;53.412;-1.328;2023-06-24T04:53:49;19.10;1.00
22364;DHT22;11349;53.412;-1.328;2023-06-24T04:56:15;19.10;1.00
22364;DHT22;11349;53.412;-1.328;2023-06-24T04:58:41;19.20;1.00
22364;DHT22;11349;53.412;-1.328;2023-06-24T05:01:06;19.20;99.90
22364;DHT22;11349;53.412;-1.328;2023-06-24T05:03:32;19.50;99.90
22364;DHT22;11349;53.412;-1.328;2023-06-24T05:05:58;19.50;1.00
22364;DHT22;11349;53.412;-1.328;2023-06-24T05:08:24;19.50;1.00
22364;DHT22;11349;53.412;-1.328;2023-06-24T05:10:50;19.50;1.00
22364;DHT22;11349;53.412;-1.328;2023-06-24T05:13:15;19.70;99.90
22364;DHT22;11349;53.412;-1.328;2023-06-24T05:15:41;19.80;99.90
22364;DHT22;11349;53.412;-1.328;2023-06-24T05:18:07;19.80;99.90
22364;DHT22;11349;53.412;-1.328;2023-06-24T05:20:32;19.80;1.00
22364;DHT22;11349;53.412;-1.328;2023-06-24T05:22:58;19.80;99.90
22364;DHT22;11349;53.412;-1.328;2023-06-24T05:25:24;20.00;99.90
22364;DHT22;11349;53.412;-1.328;2023-06-24T05:27:49;20.10;99.90
22364;DHT22;11349;53.412;-1.328;2023-06-24T05:30:15;20.30;99.90
22364;DHT22;11349;53.412;-1.328;2023-06-24T05:32:41;20.40;99.90
22364;DHT22;11349;53.412;-1.328;2023-06-24T05:35:07;20.50;99.90
22364;DHT22;11349;53.412;-1.328;2023-06-24T05:37:32;20.50;99.90
22364;DHT22;11349;53.412;-1.328;2023-06-24T05:39:58;20.50;21.50
22364;DHT22;11349;53.412;-1.328;2023-06-24T05:42:27;20.80;99.90
22364;DHT22;11349;53.412;-1.328;2023-06-24T05:44:53;21.00;1.00
22364;DHT22;11349;53.412;-1.328;2023-06-24T05:47:19;21.00;99.90
22364;DHT22;11349;53.412;-1.328;2023-06-24T05:49:44;21.00;85.10
22364;DHT22;11349;53.412;-1.328;2023-06-24T05:52:11;21.10;99.90
22364;DHT22;11349;53.412;-1.328;2023-06-24T05:54:37;21.20;99.90
22364;DHT22;11349;53.412;-1.328;2023-06-24T05:57:03;21.20;99.90
22364;DHT22;11349;53.412;-1.328;2023-06-24T05:59:32;21.30;99.90
22364;DHT22;11349;53.412;-1.328;2023-06-24T06:01:57;21.40;99.90
22364;DHT22;11349;53.412;-1.328;2023-06-24T06:04:23;21.50;99.90
22364;DHT22;11349;53.412;-1.328;2023-06-24T06:06:49;21.50;99.90
22364;DHT22;11349;53.412;-1.328;2023-06-24T06:09:15;21.60;99.90
22364;DHT22;11349;53.412;-1.328;2023-06-24T06:11:41;21.60;99.90
22364;DHT22;11349;53.412;-1.328;2023-06-24T06:14:07;21.60;81.20
22364;DHT22;11349;53.412;-1.328;2023-06-24T06:16:33;21.70;73.70
22364;DHT22;11349;53.412;-1.328;2023-06-24T06:18:58;21.70;38.20
22364;DHT22;11349;53.412;-1.328;2023-06-24T06:21:24;21.80;25.40
22364;DHT22;11349;53.412;-1.328;2023-06-24T06:23:50;21.80;27.50
22364;DHT22;11349;53.412;-1.328;2023-06-24T06:26:16;21.80;1.00
22364;DHT22;11349;53.412;-1.328;2023-06-24T06:28:42;21.90;1.00
22364;DHT22;11349;53.412;-1.328;2023-06-24T06:31:08;21.90;1.00
22364;DHT22;11349;53.412;-1.328;2023-06-24T06:33:33;22.00;1.00
22364;DHT22;11349;53.412;-1.328;2023-06-24T06:35:59;22.00;99.90
22364;DHT22;11349;53.412;-1.328;2023-06-24T06:38:25;22.10;1.00
22364;DHT22;11349;53.412;-1.328;2023-06-24T06:40:51;22.10;1.00
22364;DHT22;11349;53.412;-1.328;2023-06-24T06:43:16;22.20;1.00
22364;DHT22;11349;53.412;-1.328;2023-06-24T06:45:42;22.30;99.90
22364;DHT22;11349;53.412;-1.328;2023-06-24T06:48:08;22.40;99.90
22364;DHT22;11349;53.412;-1.328;2023-06-24T06:50:34;22.30;99.90
22364;DHT22;11349;53.412;-1.328;2023-06-24T06:53:00;22.30;99.90
22364;DHT22;11349;53.412;-1.328;2023-06-24T06:55:26;22.60;99.90
22364;DHT22;11349;53.412;-1.328;2023-06-24T06:57:53;22.70;99.90
22364;DHT22;11349;53.412;-1.328;2023-06-24T07:00:19;22.80;99.90
22364;DHT22;11349;53.412;-1.328;2023-06-24T07:02:44;23.10;1.00
22364;DHT22;11349;53.412;-1.328;2023-06-24T07:05:10;23.10;88.20
22364;DHT22;11349;53.412;-1.328;2023-06-24T07:07:37;23.30;99.90
22364;DHT22;11349;53.412;-1.328;2023-06-24T07:10:04;23.60;99.90
22364;DHT22;11349;53.412;-1.328;2023-06-24T07:12:30;23.50;1.00
22364;DHT22;11349;53.412;-1.328;2023-06-24T07:14:56;23.80;1.00
22364;DHT22;11349;53.412;-1.328;2023-06-24T07:17:22;24.20;99.90
22364;DHT22;11349;53.412;-1.328;2023-06-24T07:19:48;24.00;99.90
22364;DHT22;11349;53.412;-1.328;2023-06-24T07:22:16;23.70;1.00
22364;DHT22;11349;53.412;-1.328;2023-06-24T07:24:42;23.70;99.90
22364;DHT22;11349;53.412;-1.328;2023-06-24T07:27:08;23.70;99.90
22364;DHT22;11349;53.412;-1.328;2023-06-24T07:29:33;24.00;99.90
22364;DHT22;11349;53.412;-1.328;2023-06-24T07:31:59;23.90;99.90
22364;DHT22;11349;53.412;-1.328;2023-06-24T07:34:25;23.80;99.90
22364;DHT22;11349;53.412;-1.328;2023-06-24T07:36:51;24.00;71.50
22364;DHT22;11349;53.412;-1.328;2023-06-24T07:39:17;23.80;99.90
22364;DHT22;11349;53.412;-1.328;2023-06-24T07:41:43;23.90;99.90
22364;DHT22;11349;53.412;-1.328;2023-06-24T07:44:08;24.00;99.90
22364;DHT22;11349;53.412;-1.328;2023-06-24T07:46:34;24.10;53.10
22364;DHT22;11349;53.412;-1.328;2023-06-24T07:49:00;24.40;99.90
22364;DHT22;11349;53.412;-1.328;2023-06-24T07:51:27;24.50;99.90
22364;DHT22;11349;53.412;-1.328;2023-06-24T07:53:52;24.10;1.00
22364;DHT22;11349;53.412;-1.328;2023-06-24T07:56:18;24.20;1.00
22364;DHT22;11349;53.412;-1.328;2023-06-24T07:58:44;24.50;32.80
22364;DHT22;11349;53.412;-1.328;2023-06-24T08:01:10;24.60;99.90
22364;DHT22;11349;53.412;-1.328;2023-06-24T08:03:35;24.30;1.00
22364;DHT22;11349;53.412;-1.328;2023-06-24T08:06:04;24.30;1.00
22364;DHT22;11349;53.412;-1.328;2023-06-24T08:08:30;24.20;1.00
22364;DHT22;11349;53.412;-1.328;2023-06-24T08:10:56;24.10;1.00
22364;DHT22;11349;53.412;-1.328;2023-06-24T08:13:21;24.10;1.00
22364;DHT22;11349;53.412;-1.328;2023-06-24T08:15:47;24.20;1.00
22364;DHT22;11349;53.412;-1.328;2023-06-24T08:18:13;24.10;1.00
22364;DHT22;11349;53.412;-1.328;2023-06-24T08:20:38;24.00;1.00
22364;DHT22;11349;53.412;-1.328;2023-06-24T08:23:04;24.10;1.00
22364;DHT22;11349;53.412;-1.328;2023-06-24T08:25:30;24.10;1.00
22364;DHT22;11349;53.412;-1.328;2023-06-24T08:27:56;24.20;1.00
22364;DHT22;11349;53.412;-1.328;2023-06-24T08:30:22;24.20;1.00
22364;DHT22;11349;53.412;-1.328;2023-06-24T08:32:47;24.20;1.00
22364;DHT22;11349;53.412;-1.328;2023-06-24T08:35:13;24.20;1.00
22364;DHT22;11349;53.412;-1.328;2023-06-24T08:37:39;24.10;99.90
22364;DHT22;11349;53.412;-1.328;2023-06-24T08:40:06;24.10;1.00
22364;DHT22;11349;53.412;-1.328;2023-06-24T08:42:31;24.20;1.00
22364;DHT22;11349;53.412;-1.328;2023-06-24T08:44:57;24.10;1.00
22364;DHT22;11349;53.412;-1.328;2023-06-24T08:47:28;24.20;99.90
22364;DHT22;11349;53.412;-1.328;2023-06-24T08:50:01;24.10;1.00
22364;DHT22;11349;53.412;-1.328;2023-06-24T08:52:31;24.20;99.90
22364;DHT22;11349;53.412;-1.328;2023-06-24T08:54:59;24.30;99.90
22364;DHT22;11349;53.412;-1.328;2023-06-24T08:57:25;24.40;99.90
22364;DHT22;11349;53.412;-1.328;2023-06-24T08:59:50;24.30;1.00
22364;DHT22;11349;53.412;-1.328;2023-06-24T09:02:16;24.20;1.00
22364;DHT22;11349;53.412;-1.328;2023-06-24T09:04:42;24.40;99.90
22364;DHT22;11349;53.412;-1.328;2023-06-24T09:07:07;24.40;99.90
22364;DHT22;11349;53.412;-1.328;2023-06-24T09:09:42;24.50;1.00
22364;DHT22;11349;53.412;-1.328;2023-06-24T09:12:11;24.40;1.00
22364;DHT22;11349;53.412;-1.328;2023-06-24T09:14:37;24.40;99.90
22364;DHT22;11349;53.412;-1.328;2023-06-24T09:17:03;24.30;99.90
22364;DHT22;11349;53.412;-1.328;2023-06-24T09:19:32;24.50;1.00
22364;DHT22;11349;53.412;-1.328;2023-06-24T09:22:06;24.60;99.90
22364;DHT22;11349;53.412;-1.328;2023-06-24T09:24:32;24.50;99.90
22364;DHT22;11349;53.412;-1.328;2023-06-24T09:26:58;24.40;99.90
22364;DHT22;11349;53.412;-1.328;2023-06-24T09:29:31;24.40;99.90
22364;DHT22;11349;53.412;-1.328;2023-06-24T09:31:57;24.30;99.90
22364;DHT22;11349;53.412;-1.328;2023-06-24T09:34:25;24.40;99.90
22364;DHT22;11349;53.412;-1.328;2023-06-24T09:36:53;24.50;99.90
22364;DHT22;11349;53.412;-1.328;2023-06-24T09:39:19;24.50;99.90
22364;DHT22;11349;53.412;-1.328;2023-06-24T09:41:50;24.50;99.90
22364;DHT22;11349;53.412;-1.328;2023-06-24T09:44:16;24.60;99.90
22364;DHT22;11349;53.412;-1.328;2023-06-24T09:46:45;24.80;99.90
22364;DHT22;11349;53.412;-1.328;2023-06-24T09:49:10;24.90;99.90
22364;DHT22;11349;53.412;-1.328;2023-06-24T09:51:44;24.90;1.00
22364;DHT22;11349;53.412;-1.328;2023-06-24T09:54:12;24.70;45.20
22364;DHT22;11349;53.412;-1.328;2023-06-24T09:56:52;24.70;98.50
22364;DHT22;11349;53.412;-1.328;2023-06-24T09:59:19;24.80;99.90
22364;DHT22;11349;53.412;-1.328;2023-06-24T10:01:46;24.80;1.00
22364;DHT22;11349;53.412;-1.328;2023-06-24T10:04:16;24.70;33.70
22364;DHT22;11349;53.412;-1.328;2023-06-24T10:06:42;24.70;1.00
22364;DHT22;11349;53.412;-1.328;2023-06-24T10:09:08;24.70;34.50
22364;DHT22;11349;53.412;-1.328;2023-06-24T10:11:34;24.80;99.90
22364;DHT22;11349;53.412;-1.328;2023-06-24T10:14:00;24.90;1.00
22364;DHT22;11349;53.412;-1.328;2023-06-24T10:16:26;24.90;1.00
22364;DHT22;11349;53.412;-1.328;2023-06-24T10:18:59;24.80;1.00
22364;DHT22;11349;53.412;-1.328;2023-06-24T10:24:47;25.10;1.00
22364;DHT22;11349;53.412;-1.328;2023-06-24T10:27:15;25.10;1.00
22364;DHT22;11349;53.412;-1.328;2023-06-24T10:29:46;25.00;1.00
22364;DHT22;11349;53.412;-1.328;2023-06-24T10:32:12;25.10;99.90
22364;DHT22;11349;53.412;-1.328;2023-06-24T10:42:49;24.80;1.00
22364;DHT22;11349;53.412;-1.328;2023-06-24T10:45:20;24.80;1.00
22364;DHT22;11349;53.412;-1.328;2023-06-24T10:47:48;24.80;1.00
22364;DHT22;11349;53.412;-1.328;2023-06-24T10:50:23;24.90;1.00
22364;DHT22;11349;53.412;-1.328;2023-06-24T10:52:51;24.80;1.00
22364;DHT22;11349;53.412;-1.328;2023-06-24T10:55:24;24.80;1.00
22364;DHT22;11349;53.412;-1.328;2023-06-24T10:57:53;25.00;99.90
22364;DHT22;11349;53.412;-1.328;2023-06-24T11:00:20;25.20;83.30
22364;DHT22;11349;53.412;-1.328;2023-06-24T11:02:46;25.30;1.00
22364;DHT22;11349;53.412;-1.328;2023-06-24T11:05:11;25.30;99.90
22364;DHT22;11349;53.412;-1.328;2023-06-24T11:07:38;25.30;99.90
22364;DHT22;11349;53.412;-1.328;2023-06-24T11:10:10;25.20;99.90
22364;DHT22;11349;53.412;-1.328;2023-06-24T11:12:38;25.20;99.90
22364;DHT22;11349;53.412;-1.328;2023-06-24T11:15:08;25.10;99.90
22364;DHT22;11349;53.412;-1.328;2023-06-24T11:17:35;25.00;99.90
22364;DHT22;11349;53.412;-1.328;2023-06-24T11:20:06;25.00;99.90
22364;DHT22;11349;53.412;-1.328;2023-06-24T11:22:31;25.10;99.90
22364;DHT22;11349;53.412;-1.328;2023-06-24T11:24:57;25.20;99.90
22364;DHT22;11349;53.412;-1.328;2023-06-24T11:27:30;25.10;99.90
22364;DHT22;11349;53.412;-1.328;2023-06-24T11:29:59;25.00;99.90
22364;DHT22;11349;53.412;-1.328;2023-06-24T11:32:41;25.10;99.90
22364;DHT22;11349;53.412;-1.328;2023-06-24T11:35:09;25.00;99.90
22364;DHT22;11349;53.412;-1.328;2023-06-24T11:37:35;25.00;99.90
22364;DHT22;11349;53.412;-1.328;2023-06-24T11:40:04;25.10;99.90
22364;DHT22;11349;53.412;-1.328;2023-06-24T11:42:31;25.10;99.90
22364;DHT22;11349;53.412;-1.328;2023-06-24T11:45:05;25.20;99.90
22364;DHT22;11349;53.412;-1.328;2023-06-24T11:47:32;25.20;99.90
22364;DHT22;11349;53.412;-1.328;2023-06-24T11:49:59;25.10;99.90
22364;DHT22;11349;53.412;-1.328;2023-06-24T11:52:39;25.20;99.90
22364;DHT22;11349;53.412;-1.328;2023-06-24T11:55:12;25.20;1.00
22364;DHT22;11349;53.412;-1.328;2023-06-24T11:57:59;25.20;1.00
22364;DHT22;11349;53.412;-1.328;2023-06-24T12:00:31;25.30;99.90
22364;DHT22;11349;53.412;-1.328;2023-06-24T12:02:58;25.10;99.90
22364;DHT22;11349;53.412;-1.328;2023-06-24T12:08:12;25.10;1.00
22364;DHT22;11349;53.412;-1.328;2023-06-24T12:10:41;25.00;99.90
22364;DHT22;11349;53.412;-1.328;2023-06-24T12:13:07;25.00;99.90
22364;DHT22;11349;53.412;-1.328;2023-06-24T12:15:34;25.00;99.90
22364;DHT22;11349;53.412;-1.328;2023-06-24T12:18:00;25.00;99.90
22364;DHT22;11349;53.412;-1.328;2023-06-24T12:20:28;25.10;99.90
22364;DHT22;11349;53.412;-1.328;2023-06-24T12:22:54;25.20;99.90
22364;DHT22;11349;53.412;-1.328;2023-06-24T12:25:20;25.10;99.90
22364;DHT22;11349;53.412;-1.328;2023-06-24T12:27:46;25.20;1.00
22364;DHT22;11349;53.412;-1.328;2023-06-24T12:30:13;25.40;99.90
22364;DHT22;11349;53.412;-1.328;2023-06-24T12:32:39;25.30;99.90
22364;DHT22;11349;53.412;-1.328;2023-06-24T12:35:06;25.50;99.90
22364;DHT22;11349;53.412;-1.328;2023-06-24T12:37:34;25.70;1.00
22364;DHT22;11349;53.412;-1.328;2023-06-24T12:40:00;25.90;99.90
22364;DHT22;11349;53.412;-1.328;2023-06-24T12:42:27;25.80;99.90
22364;DHT22;11349;53.412;-1.328;2023-06-24T12:44:53;26.10;99.90
22364;DHT22;11349;53.412;-1.328;2023-06-24T12:47:19;26.00;15.90
22364;DHT22;11349;53.412;-1.328;2023-06-24T12:49:45;25.80;99.90
22364;DHT22;11349;53.412;-1.328;2023-06-24T12:52:12;25.70;99.90
22364;DHT22;11349;53.412;-1.328;2023-06-24T12:54:38;25.80;99.90
22364;DHT22;11349;53.412;-1.328;2023-06-24T12:57:04;25.70;99.90
22364;DHT22;11349;53.412;-1.328;2023-06-24T12:59:30;25.80;99.90
22364;DHT22;11349;53.412;-1.328;2023-06-24T13:01:56;25.70;99.90
22364;DHT22;11349;53.412;-1.328;2023-06-24T13:04:22;25.60;99.90
22364;DHT22;11349;53.412;-1.328;2023-06-24T13:06:50;25.70;99.90
22364;DHT22;11349;53.412;-1.328;2023-06-24T13:09:16;25.70;99.90
22364;DHT22;11349;53.412;-1.328;2023-06-24T13:11:42;25.70;99.90
22364;DHT22;11349;53.412;-1.328;2023-06-24T13:14:08;25.90;99.90
22364;DHT22;11349;53.412;-1.328;2023-06-24T13:16:36;26.00;1.00
22364;DHT22;11349;53.412;-1.328;2023-06-24T13:19:02;26.10;1.00
22364;DHT22;11349;53.412;-1.328;2023-06-24T13:21:28;26.00;99.90
22364;DHT22;11349;53.412;-1.328;2023-06-24T13:23:54;26.00;6.80
22364;DHT22;11349;53.412;-1.328;2023-06-24T13:26:19;26.20;1.00
22364;DHT22;11349;53.412;-1.328;2023-06-24T13:28:45;26.20;99.90
22364;DHT22;11349;53.412;-1.328;2023-06-24T13:31:11;26.20;99.90
22364;DHT22;11349;53.412;-1.328;2023-06-24T13:33:37;26.20;75.50
22364;DHT22;11349;53.412;-1.328;2023-06-24T13:36:04;26.30;99.90
22364;DHT22;11349;53.412;-1.328;2023-06-24T13:38:30;26.10;99.90
22364;DHT22;11349;53.412;-1.328;2023-06-24T13:40:56;25.70;99.90
22364;DHT22;11349;53.412;-1.328;2023-06-24T13:43:22;25.90;99.90
22364;DHT22;11349;53.412;-1.328;2023-06-24T13:45:47;26.10;99.90
22364;DHT22;11349;53.412;-1.328;2023-06-24T13:48:13;26.20;99.90
22364;DHT22;11349;53.412;-1.328;2023-06-24T13:50:39;26.00;99.90
22364;DHT22;11349;53.412;-1.328;2023-06-24T13:53:05;25.90;99.90
22364;DHT22;11349;53.412;-1.328;2023-06-24T13:55:31;26.00;99.90
22364;DHT22;11349;53.412;-1.328;2023-06-24T13:57:57;26.00;99.90
22364;DHT22;11349;53.412;-1.328;2023-06-24T14:00:23;26.10;99.90
22364;DHT22;11349;53.412;-1.328;2023-06-24T14:02:48;26.20;51.70
22364;DHT22;11349;53.412;-1.328;2023-06-24T14:05:14;26.10;99.90
22364;DHT22;11349;53.412;-1.328;2023-06-24T14:07:40;26.30;96.20
22364;DHT22;11349;53.412;-1.328;2023-06-24T14:10:06;26.20;99.90
22364;DHT22;11349;53.412;-1.328;2023-06-24T14:12:31;26.40;1.00
22364;DHT22;11349;53.412;-1.328;2023-06-24T14:14:57;26.40;1.00
22364;DHT22;11349;53.412;-1.328;2023-06-24T14:17:24;26.50;99.90
22364;DHT22;11349;53.412;-1.328;2023-06-24T14:19:49;26.40;99.90
22364;DHT22;11349;53.412;-1.328;2023-06-24T14:22:16;26.50;92.00
22364;DHT22;11349;53.412;-1.328;2023-06-24T14:24:43;26.50;1.00
22364;DHT22;11349;53.412;-1.328;2023-06-24T14:27:09;26.50;1.00
22364;DHT22;11349;53.412;-1.328;2023-06-24T14:29:35;26.50;78.20
22364;DHT22;11349;53.412;-1.328;2023-06-24T14:32:01;26.40;15.80
22364;DHT22;11349;53.412;-1.328;2023-06-24T14:34:26;26.50;1.00
22364;DHT22;11349;53.412;-1.328;2023-06-24T14:36:55;26.60;1.00
22364;DHT22;11349;53.412;-1.328;2023-06-24T14:39:21;26.70;1.00
22364;DHT22;11349;53.412;-1.328;2023-06-24T14:41:47;26.60;1.00
22364;DHT22;11349;53.412;-1.328;2023-06-24T14:44:12;26.70;1.00
22364;DHT22;11349;53.412;-1.328;2023-06-24T14:46:38;26.80;99.90
22364;DHT22;11349;53.412;-1.328;2023-06-24T14:49:04;26.60;1.00
22364;DHT22;11349;53.412;-1.328;2023-06-24T14:51:29;26.70;1.00
22364;DHT22;11349;53.412;-1.328;2023-06-24T14:53:55;26.90;99.90
22364;DHT22;11349;53.412;-1.328;2023-06-24T14:56:21;26.80;1.00
22364;DHT22;11349;53.412;-1.328;2023-06-24T14:58:47;26.70;1.00
22364;DHT22;11349;53.412;-1.328;2023-06-24T15:01:12;26.50;1.00
22364;DHT22;11349;53.412;-1.328;2023-06-24T15:03:38;26.70;99.90
22364;DHT22;11349;53.412;-1.328;2023-06-24T15:06:04;26.80;99.90
22364;DHT22;11349;53.412;-1.328;2023-06-24T15:08:29;26.70;99.90
22364;DHT22;11349;53.412;-1.328;2023-06-24T15:10:55;26.70;1.00
22364;DHT22;11349;53.412;-1.328;2023-06-24T15:13:21;26.70;99.90
22364;DHT22;11349;53.412;-1.328;2023-06-24T15:15:46;26.80;99.90
22364;DHT22;11349;53.412;-1.328;2023-06-24T15:18:12;26.80;35.50
22364;DHT22;11349;53.412;-1.328;2023-06-24T15:20:40;27.00;99.90
22364;DHT22;11349;53.412;-1.328;2023-06-24T15:23:05;26.90;99.90
22364;DHT22;11349;53.412;-1.328;2023-06-24T15:25:31;26.80;99.90
22364;DHT22;11349;53.412;-1.328;2023-06-24T15:27:57;26.70;99.90
22364;DHT22;11349;53.412;-1.328;2023-06-24T15:30:24;26.80;99.90
22364;DHT22;11349;53.412;-1.328;2023-06-24T15:32:51;27.00;99.90
22364;DHT22;11349;53.412;-1.328;2023-06-24T15:35:17;26.70;99.90
22364;DHT22;11349;53.412;-1.328;2023-06-24T15:37:42;26.60;10.00
22364;DHT22;11349;53.412;-1.328;2023-06-24T15:40:08;26.60;99.90
22364;DHT22;11349;53.412;-1.328;2023-06-24T15:42:34;26.70;99.90
22364;DHT22;11349;53.412;-1.328;2023-06-24T15:45:00;26.70;99.90
22364;DHT22;11349;53.412;-1.328;2023-06-24T15:47:26;26.70;99.90